Time;durP1;ratioP1;P1;durP2;ratioP2;P2;SDS_P1;SDS_P2;PMS_P1;PMS_P2;Temp;Humidity;BMP_temperature;BMP_pressure;BME280_temperature;BME280_humidity;BME280_pressure;Samples;Min_cycle;Max_cycle;Signal;HPM_P1;HPM_P2
2023/03/16 00:02:09;;;;;;;4.28;2.13;;;0.40;99.90;;;;;;4991447;28;20729;-74
2023/03/16 00:04:36;;;;;;;2.05;1.60;;;0.40;99.90;;;;;;4986158;28;20042;-74
2023/03/16 00:07:10;;;;;;;4.00;1.77;;;0.40;99.90;;;;;;4974254;28;20057;-74
2023/03/16 00:09:39;;;;;;;5.22;1.92;;;0.40;99.90;;;;;;4968739;28;20042;-74
2023/03/16 00:12:14;;;;;;;3.20;2.05;;;0.40;99.90;;;;;;4974211;28;20408;-74
2023/03/16 00:14:45;;;;;;;3.55;1.50;;;0.50;99.90;;;;;;4969642;28;20461;-74
2023/03/16 00:17:18;;;;;;;;;;;0.40;99.90;;;;;;4974742;28;20030;-74
2023/03/16 00:19:53;;;;;;;2.03;1.60;;;0.40;99.90;;;;;;4953792;28;20308;-74
2023/03/16 00:22:24;;;;;;;4.18;2.15;;;0.40;99.90;;;;;;4991188;28;20034;-74
2023/03/16 00:24:54;;;;;;;1.70;1.30;;;0.30;99.90;;;;;;4968737;28;20026;-73
2023/03/16 00:27:23;;;;;;;2.15;1.40;;;0.30;99.90;;;;;;4991255;28;20445;-74
2023/03/16 00:29:54;;;;;;;6.75;2.72;;;0.20;99.90;;;;;;4985975;28;20022;-73
2023/03/16 00:32:24;;;;;;;1.90;0.90;;;0.20;99.90;;;;;;4991507;28;20061;-74
2023/03/16 00:34:50;;;;;;;3.30;1.98;;;0.20;99.90;;;;;;4965242;28;20027;-73
2023/03/16 00:37:17;;;;;;;2.67;1.88;;;0.10;99.90;;;;;;4991226;28;20441;-74
2023/03/16 00:39:45;;;;;;;3.25;1.83;;;0.10;99.90;;;;;;4982472;28;20042;-74
2023/03/16 00:42:14;;;;;;;2.80;1.45;;;0.00;99.90;;;;;;4957758;28;20553;-74
2023/03/16 00:44:43;;;;;;;4.18;2.00;;;0.10;99.90;;;;;;4965296;28;20065;-74
2023/03/16 00:47:13;;;;;;;4.10;1.42;;;0.00;99.90;;;;;;4993025;28;20026;-73
2023/03/16 00:49:41;;;;;;;5.47;2.30;;;0.00;99.90;;;;;;4972791;28;20041;-74
2023/03/16 00:52:13;;;;;;;5.85;1.92;;;-0.10;99.90;;;;;;4977693;28;20072;-74
2023/03/16 00:54:44;;;;;;;6.07;1.63;;;-0.10;99.90;;;;;;4989717;28;20042;-73
2023/03/16 00:57:12;;;;;;;3.28;2.00;;;-0.10;99.90;;;;;;4952702;28;20028;-73
2023/03/16 00:59:39;;;;;;;9.25;2.33;;;0.00;99.90;;;;;;4961993;28;20409;-74
2023/03/16 01:02:06;;;;;;;3.97;1.92;;;-0.10;99.90;;;;;;4960950;28;20037;-74
2023/03/16 01:04:34;;;;;;;5.80;2.33;;;0.00;99.90;;;;;;4968866;28;20389;-73
2023/03/16 01:07:04;;;;;;;6.30;4.05;;;0.00;99.90;;;;;;4977355;28;20034;-74
2023/03/16 01:09:30;;;;;;;5.07;2.90;;;0.10;99.90;;;;;;4972306;28;20038;-74
2023/03/16 01:11:56;;;;;;;5.78;2.97;;;0.20;99.90;;;;;;4977325;28;20062;-75
2023/03/16 01:14:23;;;;;;;2.42;1.70;;;0.20;99.90;;;;;;4971488;28;20327;-75
2023/03/16 01:16:48;;;;;;;3.17;1.30;;;0.30;99.90;;;;;;4977150;28;20028;-75
2023/03/16 01:19:14;;;;;;;8.02;1.88;;;0.30;99.90;;;;;;4989488;28;20031;-74
2023/03/16 01:21:41;;;;;;;4.97;2.42;;;0.40;99.90;;;;;;4976932;28;20026;-75
2023/03/16 01:24:08;;;;;;;4.97;1.58;;;0.30;99.90;;;;;;4988900;28;20779;-74
2023/03/16 01:26:34;;;;;;;2.58;1.80;;;0.10;99.90;;;;;;4994458;28;20042;-74
2023/03/16 01:29:01;;;;;;;7.95;3.42;;;0.10;99.90;;;;;;4968316;28;20474;-74
2023/03/16 01:31:28;;;;;;;3.65;1.73;;;0.10;99.90;;;;;;4994143;28;20046;-74
2023/03/16 01:33:54;;;;;;;3.90;1.90;;;0.10;99.90;;;;;;4989002;28;20030;-74
2023/03/16 01:36:20;;;;;;;5.53;3.10;;;0.20;99.90;;;;;;4976773;28;20034;-74
2023/03/16 01:38:47;;;;;;;5.38;2.47;;;0.20;99.90;;;;;;4968483;28;20019;-74
2023/03/16 01:41:14;;;;;;;3.75;1.67;;;0.30;99.90;;;;;;4994200;28;20109;-75
2023/03/16 01:43:42;;;;;;;4.25;2.53;;;0.30;99.90;;;;;;4970002;28;20019;-74
2023/03/16 01:46:26;;;;;;;5.63;2.33;;;0.40;99.90;;;;;;4993550;28;20030;-73
2023/03/16 01:49:13;;;;;;;3.97;1.83;;;0.20;99.90;;;;;;4971828;28;20105;-73
2023/03/16 01:51:57;;;;;;;4.55;1.90;;;0.20;99.90;;;;;;4993658;28;20053;-73
2023/03/16 01:54:30;;;;;;;3.35;2.45;;;0.10;99.90;;;;;;4971468;28;20046;-75
2023/03/16 01:57:13;;;;;;;5.32;2.63;;;0.10;99.90;;;;;;4979361;28;20037;-74
2023/03/16 02:00:09;;;;;;;5.07;1.85;;;0.00;99.90;;;;;;4987529;28;20038;-74
2023/03/16 02:02:39;;;;;;;3.90;2.30;;;0.00;99.90;;;;;;4978002;28;20051;-73
2023/03/16 02:05:25;;;;;;;4.43;2.03;;;-0.10;99.90;;;;;;4953973;28;20034;-74
2023/03/16 02:07:57;;;;;;;5.13;2.10;;;-0.10;99.90;;;;;;4972359;28;20030;-74
2023/03/16 02:10:27;;;;;;;2.65;1.95;;;0.00;99.90;;;;;;4972862;28;20463;-74
2023/03/16 02:12:54;;;;;;;5.20;2.17;;;0.00;99.90;;;;;;4953349;28;20115;-74
2023/03/16 02:15:20;;;;;;;3.67;2.25;;;0.00;99.90;;;;;;4966513;28;20670;-74
2023/03/16 02:17:48;;;;;;;4.70;2.45;;;0.00;99.90;;;;;;4975322;28;20446;-74
2023/03/16 02:20:41;;;;;;;2.30;1.33;;;0.00;99.90;;;;;;4970830;28;20038;-74
2023/03/16 02:23:17;;;;;;;4.75;3.10;;;0.10;99.90;;;;;;4954913;28;20050;-74
2023/03/16 02:25:51;;;;;;;2.22;1.48;;;0.10;99.90;;;;;;4960515;28;20117;-74
2023/03/16 02:28:46;;;;;;;4.20;3.35;;;0.20;99.90;;;;;;4965780;28;20035;-74
2023/03/16 02:31:14;;;;;;;6.10;2.85;;;0.30;99.90;;;;;;4962965;28;20406;-74
2023/03/16 02:33:41;;;;;;;9.90;3.03;;;0.40;99.90;;;;;;4963689;28;20035;-74
2023/03/16 02:36:07;;;;;;;4.13;2.00;;;0.40;99.90;;;;;;4946852;28;20067;-74
2023/03/16 02:38:33;;;;;;;7.32;3.08;;;0.50;99.90;;;;;;4961736;28;20031;-74
2023/03/16 02:41:11;;;;;;;3.13;2.17;;;0.50;99.90;;;;;;4962268;28;20038;-73
2023/03/16 02:43:42;;;;;;;3.00;2.38;;;0.40;99.90;;;;;;4949111;28;20034;-74
2023/03/16 02:46:08;;;;;;;6.25;2.50;;;0.40;99.90;;;;;;4945335;28;20030;-74
2023/03/16 02:49:15;;;;;;;2.75;1.90;;;0.30;99.90;;;;;;4961228;28;20070;-74
2023/03/16 02:51:42;;;;;;;7.43;2.63;;;0.30;99.90;;;;;;4923716;28;20126;-74
2023/03/16 02:54:08;;;;;;;8.15;4.88;;;0.20;99.90;;;;;;4971832;28;20537;-74
2023/03/16 02:56:34;;;;;;;8.60;2.30;;;0.20;99.90;;;;;;4946871;28;20054;-74
2023/03/16 02:59:00;;;;;;;6.95;2.38;;;0.10;99.90;;;;;;4981523;23;20502;-69
2023/03/16 03:01:25;;;;;;;5.07;3.10;;;0.00;99.90;;;;;;4981210;28;20026;-68
2023/03/16 03:03:51;;;;;;;3.53;1.95;;;0.00;99.90;;;;;;4970117;28;20033;-68
2023/03/16 03:06:17;;;;;;;5.32;1.95;;;0.00;99.90;;;;;;4960509;28;20038;-69
2023/03/16 03:08:43;;;;;;;2.05;1.65;;;0.00;99.90;;;;;;4964682;28;20034;-69
2023/03/16 03:11:09;;;;;;;10.45;3.50;;;0.00;99.90;;;;;;4980820;28;20118;-69
2023/03/16 03:13:37;;;;;;;3.65;1.73;;;0.00;99.90;;;;;;4963077;28;20121;-68
2023/03/16 03:16:03;;;;;;;3.47;2.15;;;0.00;99.90;;;;;;4962666;28;20495;-68
2023/03/16 03:18:29;;;;;;;10.15;2.47;;;0.00;99.90;;;;;;4963472;28;20077;-69
2023/03/16 03:20:55;;;;;;;6.80;2.47;;;0.00;99.90;;;;;;4980853;28;20328;-70
2023/03/16 03:23:20;;;;;;;6.40;3.20;;;-0.10;99.90;;;;;;4962830;28;20030;-69
2023/03/16 03:25:46;;;;;;;4.05;2.03;;;-0.20;99.90;;;;;;4980319;28;20061;-69
2023/03/16 03:28:13;;;;;;;2.95;2.53;;;-0.10;99.90;;;;;;4963546;28;20037;-69
2023/03/16 03:30:39;;;;;;;5.13;3.67;;;-0.10;99.90;;;;;;4982652;28;20080;-69
2023/03/16 03:33:05;;;;;;;4.25;2.50;;;-0.10;99.90;;;;;;4972852;28;20023;-69
2023/03/16 03:35:30;;;;;;;4.10;2.20;;;-0.10;99.90;;;;;;4999606;28;20053;-70
2023/03/16 03:37:56;;;;;;;5.93;2.92;;;0.00;99.90;;;;;;4986572;28;20496;-69
2023/03/16 03:40:22;;;;;;;3.88;2.08;;;0.00;99.90;;;;;;5002652;28;20029;-69
2023/03/16 03:42:48;;;;;;;2.88;2.28;;;-0.10;99.90;;;;;;5002976;28;20437;-69
2023/03/16 03:45:14;;;;;;;9.93;2.83;;;-0.10;99.90;;;;;;5002461;28;20057;-69
2023/03/16 03:47:42;;;;;;;3.67;2.22;;;-0.10;99.90;;;;;;4985298;28;20053;-70
2023/03/16 03:50:10;;;;;;;8.70;3.03;;;-0.10;99.90;;;;;;5002622;28;20034;-70
2023/03/16 03:52:36;;;;;;;5.47;1.98;;;0.00;99.90;;;;;;4985560;28;20046;-67
2023/03/16 03:55:01;;;;;;;5.40;3.78;;;0.10;99.90;;;;;;4995042;28;20041;-68
2023/03/16 03:57:27;;;;;;;6.53;2.65;;;0.30;99.90;;;;;;5003185;28;20480;-69
2023/03/16 03:59:53;;;;;;;8.25;3.90;;;0.40;99.90;;;;;;5001916;28;20071;-69
2023/03/16 04:02:18;;;;;;;8.10;3.92;;;0.40;99.90;;;;;;4996576;28;20482;-69
2023/03/16 04:04:44;;;;;;;9.73;3.22;;;0.50;99.90;;;;;;4989397;28;20046;-70
2023/03/16 04:07:10;;;;;;;8.32;2.60;;;0.60;99.90;;;;;;4997481;28;20552;-69
2023/03/16 04:09:36;;;;;;;5.55;2.78;;;0.70;99.90;;;;;;5002062;28;20062;-69
2023/03/16 04:12:04;;;;;;;7.22;2.90;;;0.70;99.90;;;;;;5005479;28;20062;-70
2023/03/16 04:14:30;;;;;;;5.07;3.78;;;0.70;99.90;;;;;;4990280;28;20100;-69
2023/03/16 04:16:56;;;;;;;6.95;3.20;;;0.70;99.90;;;;;;4999190;28;20470;-69
2023/03/16 04:19:23;;;;;;;9.80;3.42;;;0.70;99.90;;;;;;4972140;28;20704;-70
2023/03/16 04:21:50;;;;;;;6.00;2.45;;;0.60;99.90;;;;;;4980163;28;20026;-69
2023/03/16 04:24:17;;;;;;;3.42;2.00;;;0.60;99.90;;;;;;5005613;28;20034;-69
2023/03/16 04:26:46;;;;;;;3.33;1.92;;;0.30;99.90;;;;;;4966596;28;20500;-69
2023/03/16 04:29:16;;;;;;;4.63;1.73;;;0.20;99.90;;;;;;4988345;28;20034;-69
2023/03/16 04:31:43;;;;;;;4.93;2.67;;;0.10;99.90;;;;;;4983190;28;20030;-69
2023/03/16 04:34:10;;;;;;;4.97;3.38;;;0.00;99.90;;;;;;4991093;28;20069;-69
2023/03/16 04:36:37;;;;;;;10.60;3.63;;;0.10;99.90;;;;;;4996398;28;20042;-69
2023/03/16 04:39:04;;;;;;;6.32;2.67;;;0.00;99.90;;;;;;4979131;28;20078;-69
2023/03/16 04:41:30;;;;;;;6.45;3.13;;;0.10;99.90;;;;;;4981122;28;20030;-69
2023/03/16 04:43:56;;;;;;;20.30;3.92;;;0.10;99.90;;;;;;4969306;28;20034;-69
2023/03/16 04:46:23;;;;;;;8.23;3.50;;;0.20;99.90;;;;;;4958248;28;20715;-69
2023/03/16 04:48:49;;;;;;;7.22;4.93;;;0.30;99.90;;;;;;4984446;28;20553;-69
2023/03/16 04:51:15;;;;;;;11.73;3.58;;;0.60;99.90;;;;;;5002164;28;20116;-69
2023/03/16 04:53:40;;;;;;;10.07;3.78;;;0.70;99.90;;;;;;5001991;28;20037;-69
2023/03/16 04:56:07;;;;;;;5.82;3.75;;;0.70;99.90;;;;;;4984766;28;20034;-69
2023/03/16 04:58:32;;;;;;;9.07;4.85;;;0.60;99.90;;;;;;5001974;28;20029;-69
2023/03/16 05:00:58;;;;;;;8.77;4.15;;;0.70;99.90;;;;;;4997018;28;20030;-71
2023/03/16 05:03:24;;;;;;;5.55;2.70;;;0.60;99.90;;;;;;4972208;28;20416;-71
2023/03/16 05:05:50;;;;;;;7.32;3.67;;;0.60;99.90;;;;;;4958086;28;20034;-68
2023/03/16 05:08:16;;;;;;;4.70;3.47;;;0.50;99.90;;;;;;4996742;28;20049;-69
2023/03/16 05:10:43;;;;;;;5.60;2.65;;;0.40;99.90;;;;;;4974253;28;20526;-69
2023/03/16 05:13:09;;;;;;;9.25;3.40;;;0.40;99.90;;;;;;4994216;28;20106;-68
2023/03/16 05:15:35;;;;;;;9.82;4.60;;;0.40;99.90;;;;;;4981095;28;20039;-70
2023/03/16 05:18:00;;;;;;;9.68;3.17;;;0.30;99.90;;;;;;4996250;28;20441;-69
2023/03/16 05:20:26;;;;;;;6.20;3.30;;;0.40;99.90;;;;;;4983333;28;20035;-71
2023/03/16 05:22:52;;;;;;;10.55;5.30;;;0.30;99.90;;;;;;4999036;28;20034;-69
2023/03/16 05:25:19;;;;;;;20.67;8.38;;;0.30;99.90;;;;;;4970413;28;20026;-69
2023/03/16 05:27:49;;;;;;;10.23;5.65;;;0.40;99.90;;;;;;4992872;28;20038;-72
2023/03/16 05:30:16;;;;;;;7.25;4.13;;;0.50;99.90;;;;;;4996303;28;20038;-70
2023/03/16 05:32:43;;;;;;;27.13;9.63;;;0.50;99.90;;;;;;4981774;28;20653;-69
2023/03/16 05:35:12;;;;;;;7.25;3.67;;;0.50;99.90;;;;;;4988422;28;20035;-70
2023/03/16 05:37:41;;;;;;;4.15;2.97;;;0.40;99.90;;;;;;4985956;28;20033;-69
2023/03/16 05:40:15;;;;;;;8.40;4.90;;;0.30;99.90;;;;;;4986832;28;20033;-69
2023/03/16 05:42:46;;;;;;;8.63;3.97;;;0.30;99.90;;;;;;4970620;28;20052;-72
2023/03/16 05:45:14;;;;;;;12.45;3.13;;;0.30;99.90;;;;;;4984744;28;20483;-69
2023/03/16 05:47:42;;;;;;;5.70;3.47;;;0.30;99.90;;;;;;5002422;28;20042;-70
2023/03/16 05:50:11;;;;;;;5.75;2.90;;;0.30;99.90;;;;;;4985287;28;20518;-70
2023/03/16 05:52:38;;;;;;;8.73;3.22;;;0.40;99.90;;;;;;4985969;28;20478;-69
2023/03/16 05:55:06;;;;;;;6.85;3.33;;;0.40;99.90;;;;;;4987094;28;20038;-69
2023/03/16 05:57:33;;;;;;;6.82;4.20;;;0.50;99.90;;;;;;4983237;28;20053;-69
2023/03/16 06:00:00;;;;;;;5.05;3.47;;;0.50;99.90;;;;;;5008466;28;20054;-69
2023/03/16 06:02:27;;;;;;;12.65;3.40;;;0.50;99.90;;;;;;4984605;28;20116;-69
2023/03/16 06:04:53;;;;;;;8.05;3.05;;;0.40;99.90;;;;;;4974996;28;20378;-69
2023/03/16 06:07:19;;;;;;;11.43;6.93;;;0.50;99.90;;;;;;4985309;28;20498;-69
2023/03/16 06:09:45;;;;;;;12.60;6.00;;;0.50;99.90;;;;;;4991961;28;20045;-69
2023/03/16 06:12:11;;;;;;;9.40;4.53;;;0.50;99.90;;;;;;5001106;28;20026;-69
2023/03/16 06:14:37;;;;;;;11.30;5.28;;;0.50;99.90;;;;;;5008316;28;20065;-69
2023/03/16 06:17:02;;;;;;;16.60;7.85;;;0.50;99.90;;;;;;4994468;28;20474;-70
2023/03/16 06:19:28;;;;;;;7.82;4.43;;;0.50;99.90;;;;;;5009508;28;20446;-70
2023/03/16 06:21:54;;;;;;;5.47;3.50;;;0.50;99.90;;;;;;4983077;28;20030;-71
2023/03/16 06:24:20;;;;;;;7.00;4.00;;;0.60;99.90;;;;;;5008157;28;20112;-70
2023/03/16 06:26:45;;;;;;;5.55;3.78;;;0.60;99.90;;;;;;4994755;28;20036;-70
2023/03/16 06:29:11;;;;;;;29.00;4.05;;;0.70;99.90;;;;;;5007360;28;20088;-71
2023/03/16 06:31:37;;;;;;;15.40;4.28;;;0.70;99.90;;;;;;4996428;28;20038;-68
2023/03/16 06:34:03;;;;;;;10.88;4.43;;;0.70;99.90;;;;;;4981168;28;20034;-69
2023/03/16 06:36:28;;;;;;;7.70;4.30;;;0.80;99.90;;;;;;4999772;28;20042;-68
2023/03/16 06:38:54;;;;;;;6.45;4.47;;;0.80;99.90;;;;;;5003147;28;20030;-69
2023/03/16 06:41:20;;;;;;;6.63;4.25;;;0.90;99.90;;;;;;5003900;28;20042;-68
2023/03/16 06:43:46;;;;;;;9.50;5.05;;;1.00;99.90;;;;;;5002999;28;20030;-69
2023/03/16 06:46:12;;;;;;;5.88;3.28;;;1.10;99.90;;;;;;5003722;28;20030;-69
2023/03/16 06:48:38;;;;;;;8.45;4.38;;;1.20;99.90;;;;;;4985964;28;20080;-69
2023/03/16 06:51:06;;;;;;;7.38;4.65;;;1.30;99.90;;;;;;5003873;28;20053;-69
2023/03/16 06:53:31;;;;;;;10.18;5.13;;;1.40;99.90;;;;;;5003421;28;20064;-69
2023/03/16 06:55:57;;;;;;;13.35;4.80;;;1.50;99.90;;;;;;5003578;28;20065;-69
2023/03/16 06:58:23;;;;;;;8.95;4.60;;;1.70;99.90;;;;;;5003343;28;20062;-69
2023/03/16 07:00:48;;;;;;;7.50;4.70;;;1.80;99.90;;;;;;4983699;28;20088;-69
2023/03/16 07:03:14;;;;;;;6.82;3.67;;;1.90;99.90;;;;;;5000060;28;20142;-69
2023/03/16 07:05:40;;;;;;;11.50;5.30;;;2.00;99.90;;;;;;4987368;28;20089;-69
2023/03/16 07:08:05;;;;;;;13.05;5.20;;;2.10;99.90;;;;;;5003551;28;20033;-69
2023/03/16 07:10:31;;;;;;;8.02;4.45;;;2.20;99.90;;;;;;4999501;28;20383;-70
2023/03/16 07:12:57;;;;;;;12.45;5.07;;;2.30;99.90;;;;;;4985663;28;20034;-70
2023/03/16 07:15:25;;;;;;;8.45;3.47;;;2.40;99.90;;;;;;5003595;28;20062;-70
2023/03/16 07:17:51;;;;;;;9.07;5.18;;;2.50;99.90;;;;;;4992186;28;20084;-70
2023/03/16 07:20:18;;;;;;;10.80;3.95;;;2.60;99.90;;;;;;4970967;28;20031;-71
2023/03/16 07:22:43;;;;;;;11.27;4.75;;;2.70;99.90;;;;;;5005591;28;20502;-70
2023/03/16 07:25:10;;;;;;;10.20;4.60;;;2.70;99.90;;;;;;5001238;28;20066;-69
2023/03/16 07:27:37;;;;;;;8.15;4.10;;;2.70;99.90;;;;;;4981956;28;20054;-70
2023/03/16 07:30:04;;;;;;;10.27;5.57;;;2.80;99.90;;;;;;4985034;28;20037;-77
2023/03/16 07:32:31;;;;;;;8.88;4.10;;;2.80;99.90;;;;;;5000236;28;20038;-70
2023/03/16 07:34:57;;;;;;;8.80;5.47;;;2.90;99.90;;;;;;4973580;28;20113;-70
2023/03/16 07:37:24;;;;;;;10.20;5.65;;;2.90;99.90;;;;;;4999676;28;20064;-70
2023/03/16 07:39:50;;;;;;;8.40;4.72;;;3.00;99.90;;;;;;5007683;28;20109;-68
2023/03/16 07:42:16;;;;;;;14.40;4.18;;;3.10;99.90;;;;;;4999681;28;20502;-68
2023/03/16 07:44:42;;;;;;;7.07;3.08;;;3.20;99.90;;;;;;5007445;28;20053;-69
2023/03/16 07:47:12;;;;;;;9.93;5.35;;;3.20;99.90;;;;;;4999643;28;20089;-71
2023/03/16 07:49:38;;;;;;;6.97;3.97;;;3.20;99.90;;;;;;4990114;28;20064;-68
2023/03/16 07:52:03;;;;;;;8.70;4.55;;;3.20;99.90;;;;;;4999594;28;20108;-68
2023/03/16 07:54:29;;;;;;;6.68;3.20;;;3.30;99.90;;;;;;5007616;28;20045;-81
2023/03/16 07:56:55;;;;;;;6.30;4.30;;;3.40;99.90;;;;;;4999495;28;20237;-78
2023/03/16 07:59:21;;;;;;;9.80;5.22;;;3.50;99.90;;;;;;5006979;28;20034;-71
2023/03/16 08:01:47;;;;;;;14.95;5.07;;;3.60;99.90;;;;;;4995010;28;20469;-70
2023/03/16 08:04:13;;;;;;;9.85;4.72;;;3.70;99.90;;;;;;4996002;28;20049;-69
2023/03/16 08:06:41;;;;;;;30.83;5.03;;;3.70;99.90;;;;;;4993016;28;20033;-69
2023/03/16 08:09:07;;;;;;;7.18;4.55;;;3.80;99.90;;;;;;4985175;28;20031;-69
2023/03/16 08:11:33;;;;;;;13.45;4.25;;;3.90;99.90;;;;;;4972413;28;20035;-70
2023/03/16 08:13:58;;;;;;;8.38;3.72;;;4.10;99.90;;;;;;4969197;28;20030;-71
2023/03/16 08:16:26;;;;;;;5.28;3.47;;;4.20;99.90;;;;;;4986319;28;20121;-69
2023/03/16 08:18:55;;;;;;;8.13;3.53;;;4.30;99.90;;;;;;4983846;28;20393;-70
2023/03/16 08:21:21;;;;;;;7.47;3.60;;;4.40;99.90;;;;;;4966708;28;20030;-70
2023/03/16 08:23:50;;;;;;;7.15;3.42;;;4.60;99.90;;;;;;4971724;28;20026;-70
2023/03/16 08:26:18;;;;;;;7.18;3.42;;;4.70;99.90;;;;;;4985569;28;20038;-70
2023/03/16 08:28:46;;;;;;;4.82;3.03;;;4.80;99.90;;;;;;4988950;28;20567;-70
2023/03/16 08:31:13;;;;;;;7.60;3.33;;;5.10;99.90;;;;;;4965023;28;20022;-70
2023/03/16 08:33:41;;;;;;;7.38;3.50;;;5.20;99.90;;;;;;4989681;28;20819;-70
2023/03/16 08:36:10;;;;;;;5.45;3.00;;;5.40;99.90;;;;;;4968464;28;20027;-70
2023/03/16 08:38:38;;;;;;;8.20;3.25;;;5.50;99.90;;;;;;4988437;28;20030;-70
2023/03/16 08:41:04;;;;;;;5.55;3.00;;;5.60;99.90;;;;;;4968678;28;20041;-70
2023/03/16 08:43:31;;;;;;;5.88;2.67;;;5.60;99.90;;;;;;4987579;28;20027;-70
2023/03/16 08:45:58;;;;;;;9.45;2.50;;;5.90;99.90;;;;;;4986528;28;20037;-70
2023/03/16 08:48:24;;;;;;;5.40;2.35;;;6.10;99.90;;;;;;4969599;28;20070;-70
2023/03/16 08:50:50;;;;;;;6.00;2.60;;;6.10;99.90;;;;;;4967084;28;20084;-70
2023/03/16 08:53:17;;;;;;;5.55;3.03;;;6.20;99.90;;;;;;4988101;28;20042;-70
2023/03/16 08:55:44;;;;;;;4.47;2.80;;;6.20;99.90;;;;;;4968434;28;20054;-70
2023/03/16 08:58:11;;;;;;;4.95;3.15;;;6.40;99.90;;;;;;4989043;28;20050;-70
2023/03/16 09:00:37;;;;;;;5.28;2.55;;;6.50;99.90;;;;;;4984609;23;20134;-74
2023/03/16 09:03:04;;;;;;;5.57;2.40;;;6.60;99.90;;;;;;4985401;28;20077;-74
2023/03/16 09:05:30;;;;;;;4.55;2.53;;;6.60;99.90;;;;;;4976985;28;20038;-74
2023/03/16 09:07:56;;;;;;;3.80;2.15;;;6.70;99.90;;;;;;5004630;28;20386;-74
2023/03/16 09:10:22;;;;;;;4.82;2.03;;;6.70;99.90;;;;;;4996754;28;20528;-74
2023/03/16 09:12:50;;;;;;;3.05;1.65;;;6.70;99.90;;;;;;4997673;28;20109;-74
2023/03/16 09:15:18;;;;;;;4.20;2.17;;;6.70;99.90;;;;;;4987497;28;20037;-74
2023/03/16 09:17:45;;;;;;;4.18;1.88;;;6.80;99.90;;;;;;5004487;28;20029;-74
2023/03/16 09:20:13;;;;;;;4.57;1.73;;;7.00;99.90;;;;;;4998433;28;20029;-74
2023/03/16 09:22:39;;;;;;;3.22;1.88;;;7.00;99.90;;;;;;5003602;28;20118;-73
2023/03/16 09:25:07;;;;;;;4.68;2.33;;;7.10;99.90;;;;;;4987496;28;20037;-75
2023/03/16 09:27:35;;;;;;;3.80;2.42;;;7.30;99.90;;;;;;5004345;28;20489;-73
2023/03/16 09:30:06;;;;;;;5.75;2.80;;;7.50;99.90;;;;;;4996962;28;20445;-72
2023/03/16 09:32:32;;;;;;;6.65;2.47;;;7.60;99.90;;;;;;5002247;28;20037;-72
2023/03/16 09:34:59;;;;;;;4.38;1.95;;;7.60;99.90;;;;;;4996375;28;20042;-73
2023/03/16 09:37:25;;;;;;;4.43;2.40;;;7.70;99.90;;;;;;5005502;28;20547;-73
2023/03/16 09:39:51;;;;;;;3.38;2.20;;;7.80;99.90;;;;;;4997339;28;20025;-73
2023/03/16 09:42:35;;;;;;;5.28;2.22;;;7.50;99.90;;;;;;5005135;28;20493;-74
2023/03/16 09:45:40;;;;;;;3.58;1.75;;;7.50;99.90;;;;;;4996747;28;20531;-73
2023/03/16 09:48:09;;;;;;;4.20;1.77;;;7.60;99.90;;;;;;5006459;28;20033;-73
2023/03/16 09:50:40;;;;;;;2.38;1.35;;;7.60;99.90;;;;;;4996735;28;20029;-73
2023/03/16 09:53:34;;;;;;;2.65;1.88;;;7.40;99.90;;;;;;4973388;28;20079;-73
2023/03/16 09:56:18;;;;;;;3.20;2.28;;;7.60;99.90;;;;;;4995115;28;20412;-73
2023/03/16 09:58:44;;;;;;;4.90;2.72;;;7.70;99.90;;;;;;4991797;28;20030;-73
2023/03/16 10:01:34;;;;;;;7.05;2.13;;;7.70;99.90;;;;;;4996240;28;20231;-73
2023/03/16 10:04:24;;;;;;;3.00;1.77;;;7.70;99.90;;;;;;4957224;28;20038;-73
2023/03/16 10:07:10;;;;;;;3.70;2.10;;;8.00;99.90;;;;;;5004535;28;20485;-73
2023/03/16 10:09:49;;;;;;;4.95;2.03;;;8.20;99.90;;;;;;4996668;28;20042;-73
2023/03/16 10:12:16;;;;;;;3.28;1.90;;;8.20;99.90;;;;;;5002135;28;20042;-74
2023/03/16 10:14:57;;;;;;;7.00;1.80;;;8.40;99.90;;;;;;4987980;28;20043;-73
2023/03/16 10:17:44;;;;;;;3.45;1.70;;;8.60;99.90;;;;;;5003543;28;20041;-73
2023/03/16 10:20:16;;;;;;;4.93;2.03;;;8.70;99.90;;;;;;4994814;28;20033;-73
2023/03/16 10:22:45;;;;;;;3.15;1.73;;;8.80;99.90;;;;;;5003101;28;20037;-73
2023/03/16 10:25:46;;;;;;;3.38;1.70;;;8.70;99.90;;;;;;4997062;28;20044;-73
2023/03/16 10:28:22;;;;;;;4.18;1.85;;;8.70;99.90;;;;;;4990261;28;20037;-73
2023/03/16 10:30:52;;;;;;;4.30;2.30;;;9.00;99.90;;;;;;4992762;28;20050;-74
2023/03/16 10:33:28;;;;;;;3.42;1.77;;;9.20;99.90;;;;;;4990734;28;20041;-73
2023/03/16 10:36:11;;;;;;;6.63;2.08;;;9.10;99.90;;;;;;4992713;28;20059;-73
2023/03/16 10:38:45;;;;;;;5.70;2.58;;;9.40;99.90;;;;;;4992499;28;20025;-73
2023/03/16 10:41:21;;;;;;;4.82;2.28;;;9.70;99.90;;;;;;4995699;28;20041;-73
2023/03/16 10:44:07;;;;;;;3.13;1.80;;;9.80;99.90;;;;;;4989716;28;20041;-74
2023/03/16 10:46:47;;;;;;;3.30;1.60;;;9.80;99.90;;;;;;4999625;28;20149;-73
2023/03/16 10:49:26;;;;;;;2.97;1.65;;;10.20;99.90;;;;;;4998648;28;20145;-73
2023/03/16 10:51:58;;;;;;;3.65;1.65;;;10.50;99.90;;;;;;4996039;28;20479;-72
2023/03/16 10:54:31;;;;;;;6.05;2.90;;;10.40;99.90;;;;;;4973576;28;20117;-73
2023/03/16 10:56:58;;;;;;;4.53;1.92;;;10.30;99.90;;;;;;4979745;28;20161;-74
2023/03/16 10:59:33;;;;;;;11.95;2.22;;;10.70;99.90;;;;;;4974174;28;20030;-74
2023/03/16 11:02:13;;;;;;;3.45;1.58;;;11.20;99.90;;;;;;4956936;28;20029;-73
2023/03/16 11:04:39;;;;;;;3.78;1.33;;;11.20;99.90;;;;;;4996315;28;20038;-74
2023/03/16 11:07:10;;;;;;;2.72;1.02;;;11.40;99.80;;;;;;5003649;28;20030;-74
2023/03/16 11:09:36;;;;;;;5.30;1.27;;;11.60;96.00;;;;;;4995199;28;20039;-74
2023/03/16 11:12:23;;;;;;;2.45;1.40;;;11.40;97.00;;;;;;5004112;28;20042;-74
2023/03/16 11:14:49;;;;;;;3.92;1.95;;;11.70;96.80;;;;;;4987726;28;20101;-74
2023/03/16 11:17:35;;;;;;;4.20;1.95;;;11.00;97.30;;;;;;4994442;28;20038;-74
2023/03/16 11:20:13;;;;;;;3.97;1.58;;;11.20;99.00;;;;;;4973170;28;20037;-74
2023/03/16 11:22:41;;;;;;;4.15;1.58;;;11.00;98.30;;;;;;5002285;28;20104;-73
2023/03/16 11:25:10;;;;;;;4.10;1.45;;;10.70;98.70;;;;;;4995095;28;20053;-74
2023/03/16 11:27:53;;;;;;;3.15;1.92;;;11.10;99.90;;;;;;5003395;28;20073;-74
2023/03/16 11:30:36;;;;;;;4.20;2.15;;;11.70;97.50;;;;;;4985440;28;20031;-74
2023/03/16 11:33:02;;;;;;;3.85;1.73;;;11.80;97.10;;;;;;4990663;28;20050;-74
2023/03/16 11:35:41;;;;;;;9.15;2.28;;;11.70;98.60;;;;;;4992745;28;20033;-74
2023/03/16 11:38:14;;;;;;;4.15;2.15;;;12.20;95.50;;;;;;5005585;28;20030;-74
2023/03/16 11:40:54;;;;;;;6.50;2.63;;;12.10;96.70;;;;;;4992783;28;20030;-74
2023/03/16 11:44:03;;;;;;;3.78;2.00;;;11.50;96.40;;;;;;4989828;28;20030;-74
2023/03/16 11:47:22;;;;;;;4.93;1.27;;;11.30;98.70;;;;;;4991071;28;20066;-74
2023/03/16 11:50:21;;;;;;;3.17;1.83;;;11.00;98.20;;;;;;4996276;28;20034;-74
2023/03/16 11:52:52;;;;;;;3.45;1.88;;;11.20;98.60;;;;;;5001672;28;20490;-74
2023/03/16 11:56:05;;;;;;;4.82;1.77;;;11.30;97.60;;;;;;4995849;28;20073;-74
2023/03/16 11:59:06;;;;;;;4.25;1.88;;;10.70;99.80;;;;;;4973461;28;20315;-74
2023/03/16 12:02:04;;;;;;;6.03;1.70;;;11.20;97.40;;;;;;4998031;28;20034;-74
2023/03/16 12:04:45;;;;;;;3.58;1.77;;;11.50;97.00;;;;;;4995645;28;20039;-74
2023/03/16 12:07:39;;;;;;;;;;;11.20;96.70;;;;;;5003171;28;20099;-74
2023/03/16 12:10:22;;;;;;;3.92;2.03;;;11.50;97.80;;;;;;4995743;28;20398;-74
2023/03/16 12:13:09;;;;;;;3.22;1.52;;;12.30;96.90;;;;;;4994358;28;20034;-74
2023/03/16 12:15:44;;;;;;;4.70;1.60;;;12.60;95.20;;;;;;4989696;28;20041;-75
2023/03/16 12:18:26;;;;;;;5.13;1.40;;;12.10;95.20;;;;;;4988313;28;20026;-75
2023/03/16 12:20:59;;;;;;;3.13;1.50;;;12.70;95.80;;;;;;4990480;28;20032;-75
2023/03/16 12:23:37;;;;;;;6.65;1.95;;;13.60;93.40;;;;;;4989792;28;20096;-74
2023/03/16 12:26:03;;;;;;;4.68;1.75;;;13.10;92.90;;;;;;4987979;28;20063;-75
2023/03/16 12:28:32;;;;;;;2.97;1.63;;;14.40;91.10;;;;;;5003342;28;20104;-75
2023/03/16 12:31:08;;;;;;;5.47;1.60;;;13.80;91.40;;;;;;4998900;28;20092;-75
2023/03/16 12:33:39;;;;;;;2.67;1.50;;;13.70;92.10;;;;;;4989316;28;20042;-75
2023/03/16 12:36:41;;;;;;;4.13;2.25;;;13.80;92.40;;;;;;4993034;28;20038;-75
2023/03/16 12:39:48;;;;;;;2.47;1.17;;;13.40;90.90;;;;;;4972352;28;20033;-76
2023/03/16 12:42:58;;;;;;;3.13;1.50;;;13.80;93.10;;;;;;4994900;28;20566;-76
2023/03/16 12:45:45;;;;;;;5.88;1.85;;;14.30;90.20;;;;;;4995384;28;20025;-75
2023/03/16 12:48:23;;;;;;;6.15;2.05;;;13.60;88.70;;;;;;5004147;28;20046;-75
2023/03/16 12:50:57;;;;;;;4.18;1.65;;;13.50;90.60;;;;;;4995578;28;20815;-75
2023/03/16 12:53:45;;;;;;;2.72;1.45;;;14.20;87.00;;;;;;4993363;28;20034;-76
2023/03/16 12:56:27;;;;;;;2.97;1.45;;;13.80;89.00;;;;;;4997486;28;20038;-75
2023/03/16 12:59:00;;;;;;;3.70;1.70;;;13.70;90.30;;;;;;4959628;28;20500;-76
2023/03/16 13:01:52;;;;;;;4.05;1.63;;;13.60;90.60;;;;;;4983187;28;20489;-76
2023/03/16 13:04:22;;;;;;;6.20;1.75;;;13.80;90.10;;;;;;4982464;28;20446;-76
2023/03/16 13:07:08;;;;;;;2.55;1.27;;;14.40;87.60;;;;;;5003033;28;20108;-76
2023/03/16 13:09:42;;;;;;;4.20;1.92;;;14.70;88.40;;;;;;4998454;28;20085;-76
2023/03/16 13:12:20;;;;;;;4.85;2.45;;;14.20;87.90;;;;;;5004294;28;20030;-75
2023/03/16 13:14:46;;;;;;;7.43;2.13;;;14.40;87.50;;;;;;4989665;28;20034;-74
2023/03/16 13:17:17;;;;;;;9.80;1.90;;;15.10;89.80;;;;;;5005723;28;20080;-74